sensor_id;sensor_type;location;lat;lon;timestamp;temperature;humidity
79760;DHT22;69248;42.138;24.742;2023-04-15T00:00:17;13.80;67.20
79760;DHT22;69248;42.138;24.742;2023-04-15T00:02:44;13.70;67.20
79760;DHT22;69248;42.138;24.742;2023-04-15T00:05:12;13.70;67.30
79760;DHT22;69248;42.138;24.742;2023-04-15T00:07:39;13.70;67.40
79760;DHT22;69248;42.138;24.742;2023-04-15T00:10:07;13.60;67.50
79760;DHT22;69248;42.138;24.742;2023-04-15T00:12:35;13.60;67.80
79760;DHT22;69248;42.138;24.742;2023-04-15T00:15:04;13.50;68.00
79760;DHT22;69248;42.138;24.742;2023-04-15T00:17:32;13.40;68.50
79760;DHT22;69248;42.138;24.742;2023-04-15T00:19:59;13.40;68.20
79760;DHT22;69248;42.138;24.742;2023-04-15T00:22:27;13.50;68.30
79760;DHT22;69248;42.138;24.742;2023-04-15T00:24:54;13.60;68.10
79760;DHT22;69248;42.138;24.742;2023-04-15T00:27:22;13.70;67.40
79760;DHT22;69248;42.138;24.742;2023-04-15T00:29:50;13.70;66.90
79760;DHT22;69248;42.138;24.742;2023-04-15T00:32:18;13.70;66.90
79760;DHT22;69248;42.138;24.742;2023-04-15T00:34:45;13.60;67.40
79760;DHT22;69248;42.138;24.742;2023-04-15T00:37:13;13.60;67.80
79760;DHT22;69248;42.138;24.742;2023-04-15T00:39:40;13.60;67.80
79760;DHT22;69248;42.138;24.742;2023-04-15T00:42:08;13.50;67.90
79760;DHT22;69248;42.138;24.742;2023-04-15T00:44:36;13.40;68.50
79760;DHT22;69248;42.138;24.742;2023-04-15T00:47:04;13.20;69.00
79760;DHT22;69248;42.138;24.742;2023-04-15T00:49:32;13.10;69.70
79760;DHT22;69248;42.138;24.742;2023-04-15T00:51:59;13.10;69.90
79760;DHT22;69248;42.138;24.742;2023-04-15T00:54:27;13.10;69.60
79760;DHT22;69248;42.138;24.742;2023-04-15T00:56:54;13.10;69.50
79760;DHT22;69248;42.138;24.742;2023-04-15T00:59:23;13.00;69.60
79760;DHT22;69248;42.138;24.742;2023-04-15T01:01:51;12.90;69.90
79760;DHT22;69248;42.138;24.742;2023-04-15T01:04:18;12.80;70.00
79760;DHT22;69248;42.138;24.742;2023-04-15T01:06:46;12.80;69.90
79760;DHT22;69248;42.138;24.742;2023-04-15T01:09:13;12.80;70.30
79760;DHT22;69248;42.138;24.742;2023-04-15T01:11:41;12.70;70.10
79760;DHT22;69248;42.138;24.742;2023-04-15T01:14:10;12.60;70.00
79760;DHT22;69248;42.138;24.742;2023-04-15T01:16:38;12.40;70.20
79760;DHT22;69248;42.138;24.742;2023-04-15T01:19:08;12.40;69.90
79760;DHT22;69248;42.138;24.742;2023-04-15T01:21:37;12.30;69.40
79760;DHT22;69248;42.138;24.742;2023-04-15T01:24:07;12.30;69.30
79760;DHT22;69248;42.138;24.742;2023-04-15T01:26:39;12.30;69.30
79760;DHT22;69248;42.138;24.742;2023-04-15T01:29:07;12.40;68.70
79760;DHT22;69248;42.138;24.742;2023-04-15T01:31:35;12.40;67.50
79760;DHT22;69248;42.138;24.742;2023-04-15T01:34:03;12.40;66.50
79760;DHT22;69248;42.138;24.742;2023-04-15T01:36:30;12.50;66.50
79760;DHT22;69248;42.138;24.742;2023-04-15T01:38:58;12.40;66.50
79760;DHT22;69248;42.138;24.742;2023-04-15T01:41:26;12.40;66.40
79760;DHT22;69248;42.138;24.742;2023-04-15T01:43:54;12.30;66.80
79760;DHT22;69248;42.138;24.742;2023-04-15T01:46:22;12.30;67.10
79760;DHT22;69248;42.138;24.742;2023-04-15T01:48:49;12.10;67.70
79760;DHT22;69248;42.138;24.742;2023-04-15T01:51:17;11.80;68.80
79760;DHT22;69248;42.138;24.742;2023-04-15T01:53:45;11.70;69.40
79760;DHT22;69248;42.138;24.742;2023-04-15T01:56:12;11.60;69.60
79760;DHT22;69248;42.138;24.742;2023-04-15T01:58:40;11.70;69.50
79760;DHT22;69248;42.138;24.742;2023-04-15T02:01:07;11.80;68.90
79760;DHT22;69248;42.138;24.742;2023-04-15T02:03:36;11.90;68.40
79760;DHT22;69248;42.138;24.742;2023-04-15T02:06:04;12.00;67.50
79760;DHT22;69248;42.138;24.742;2023-04-15T02:08:32;12.10;66.70
79760;DHT22;69248;42.138;24.742;2023-04-15T02:11:00;12.10;66.30
79760;DHT22;69248;42.138;24.742;2023-04-15T02:13:27;11.80;66.80
79760;DHT22;69248;42.138;24.742;2023-04-15T02:15:55;11.60;67.90
79760;DHT22;69248;42.138;24.742;2023-04-15T02:18:23;11.50;68.30
79760;DHT22;69248;42.138;24.742;2023-04-15T02:20:51;11.30;68.70
79760;DHT22;69248;42.138;24.742;2023-04-15T02:23:19;11.40;68.60
79760;DHT22;69248;42.138;24.742;2023-04-15T02:25:46;11.50;67.90
79760;DHT22;69248;42.138;24.742;2023-04-15T02:28:14;11.70;66.80
79760;DHT22;69248;42.138;24.742;2023-04-15T02:30:42;11.60;66.40
79760;DHT22;69248;42.138;24.742;2023-04-15T02:33:09;11.70;66.60
79760;DHT22;69248;42.138;24.742;2023-04-15T02:35:37;11.60;66.30
79760;DHT22;69248;42.138;24.742;2023-04-15T02:38:06;11.70;66.20
79760;DHT22;69248;42.138;24.742;2023-04-15T02:40:33;11.60;66.50
79760;DHT22;69248;42.138;24.742;2023-04-15T02:43:01;11.70;66.40
79760;DHT22;69248;42.138;24.742;2023-04-15T02:45:30;11.70;66.30
79760;DHT22;69248;42.138;24.742;2023-04-15T02:47:58;11.70;66.30
79760;DHT22;69248;42.138;24.742;2023-04-15T02:50:27;11.80;66.10
79760;DHT22;69248;42.138;24.742;2023-04-15T02:52:54;11.80;66.10
79760;DHT22;69248;42.138;24.742;2023-04-15T02:55:22;11.90;65.70
79760;DHT22;69248;42.138;24.742;2023-04-15T02:57:50;11.80;64.80
79760;DHT22;69248;42.138;24.742;2023-04-15T03:00:17;11.90;64.80
79760;DHT22;69248;42.138;24.742;2023-04-15T03:02:46;12.00;64.20
79760;DHT22;69248;42.138;24.742;2023-04-15T03:05:15;12.00;64.10
79760;DHT22;69248;42.138;24.742;2023-04-15T03:07:43;12.00;64.10
79760;DHT22;69248;42.138;24.742;2023-04-15T03:10:10;11.90;64.60
79760;DHT22;69248;42.138;24.742;2023-04-15T03:12:38;11.80;65.00
79760;DHT22;69248;42.138;24.742;2023-04-15T03:15:06;11.80;64.80
79760;DHT22;69248;42.138;24.742;2023-04-15T03:17:34;11.80;65.60
79760;DHT22;69248;42.138;24.742;2023-04-15T03:20:03;11.90;64.80
79760;DHT22;69248;42.138;24.742;2023-04-15T03:22:33;11.90;64.60
79760;DHT22;69248;42.138;24.742;2023-04-15T03:25:01;12.10;64.20
79760;DHT22;69248;42.138;24.742;2023-04-15T03:27:29;12.10;63.10
79760;DHT22;69248;42.138;24.742;2023-04-15T03:29:57;12.10;63.10
79760;DHT22;69248;42.138;24.742;2023-04-15T03:32:25;12.10;63.00
79760;DHT22;69248;42.138;24.742;2023-04-15T03:34:52;12.10;62.80
79760;DHT22;69248;42.138;24.742;2023-04-15T03:37:20;12.10;62.80
79760;DHT22;69248;42.138;24.742;2023-04-15T03:39:47;12.10;62.60
79760;DHT22;69248;42.138;24.742;2023-04-15T03:42:15;11.90;63.40
79760;DHT22;69248;42.138;24.742;2023-04-15T03:44:42;11.80;64.30
79760;DHT22;69248;42.138;24.742;2023-04-15T03:47:10;11.80;64.40
79760;DHT22;69248;42.138;24.742;2023-04-15T03:49:37;11.80;64.50
79760;DHT22;69248;42.138;24.742;2023-04-15T03:52:05;11.80;63.90
79760;DHT22;69248;42.138;24.742;2023-04-15T03:54:32;11.90;63.60
79760;DHT22;69248;42.138;24.742;2023-04-15T03:57:00;11.90;63.30
79760;DHT22;69248;42.138;24.742;2023-04-15T03:59:27;11.90;63.20
79760;DHT22;69248;42.138;24.742;2023-04-15T04:01:55;11.80;63.50
79760;DHT22;69248;42.138;24.742;2023-04-15T04:04:22;11.80;63.50
79760;DHT22;69248;42.138;24.742;2023-04-15T04:06:50;11.80;63.40
79760;DHT22;69248;42.138;24.742;2023-04-15T04:09:17;11.80;63.50
79760;DHT22;69248;42.138;24.742;2023-04-15T04:11:45;11.60;64.00
79760;DHT22;69248;42.138;24.742;2023-04-15T04:14:12;11.60;64.20
79760;DHT22;69248;42.138;24.742;2023-04-15T04:16:40;11.60;64.20
79760;DHT22;69248;42.138;24.742;2023-04-15T04:19:08;11.50;64.20
79760;DHT22;69248;42.138;24.742;2023-04-15T04:21:35;11.60;64.10
79760;DHT22;69248;42.138;24.742;2023-04-15T04:24:04;11.50;63.80
79760;DHT22;69248;42.138;24.742;2023-04-15T04:26:31;11.50;63.90
79760;DHT22;69248;42.138;24.742;2023-04-15T04:28:59;11.40;63.90
79760;DHT22;69248;42.138;24.742;2023-04-15T04:31:26;11.10;64.60
79760;DHT22;69248;42.138;24.742;2023-04-15T04:33:54;11.00;66.00
79760;DHT22;69248;42.138;24.742;2023-04-15T04:36:21;11.00;66.40
79760;DHT22;69248;42.138;24.742;2023-04-15T04:38:49;11.00;66.50
79760;DHT22;69248;42.138;24.742;2023-04-15T04:41:17;11.00;66.10
79760;DHT22;69248;42.138;24.742;2023-04-15T04:43:44;11.00;66.10
79760;DHT22;69248;42.138;24.742;2023-04-15T04:46:12;10.90;66.10
79760;DHT22;69248;42.138;24.742;2023-04-15T04:48:40;10.90;66.00
79760;DHT22;69248;42.138;24.742;2023-04-15T04:51:07;10.80;65.30
79760;DHT22;69248;42.138;24.742;2023-04-15T04:53:35;10.70;66.20
79760;DHT22;69248;42.138;24.742;2023-04-15T04:56:03;10.70;65.70
79760;DHT22;69248;42.138;24.742;2023-04-15T04:58:31;10.70;65.60
79760;DHT22;69248;42.138;24.742;2023-04-15T05:00:58;10.80;65.30
79760;DHT22;69248;42.138;24.742;2023-04-15T05:03:26;10.90;64.90
79760;DHT22;69248;42.138;24.742;2023-04-15T05:05:54;11.10;64.50
79760;DHT22;69248;42.138;24.742;2023-04-15T05:08:21;11.10;65.20
79760;DHT22;69248;42.138;24.742;2023-04-15T05:10:48;11.20;65.30
79760;DHT22;69248;42.138;24.742;2023-04-15T05:13:16;11.30;64.70
79760;DHT22;69248;42.138;24.742;2023-04-15T05:15:44;11.40;64.50
79760;DHT22;69248;42.138;24.742;2023-04-15T05:18:11;11.50;64.10
79760;DHT22;69248;42.138;24.742;2023-04-15T05:20:39;11.60;65.00
79760;DHT22;69248;42.138;24.742;2023-04-15T05:23:07;11.70;64.30
79760;DHT22;69248;42.138;24.742;2023-04-15T05:25:34;11.80;64.10
79760;DHT22;69248;42.138;24.742;2023-04-15T05:28:02;11.90;63.60
79760;DHT22;69248;42.138;24.742;2023-04-15T05:30:29;12.10;62.90
79760;DHT22;69248;42.138;24.742;2023-04-15T05:32:57;12.10;63.10
79760;DHT22;69248;42.138;24.742;2023-04-15T05:35:24;12.10;62.60
79760;DHT22;69248;42.138;24.742;2023-04-15T05:37:52;12.10;62.10
79760;DHT22;69248;42.138;24.742;2023-04-15T05:40:20;12.00;62.70
79760;DHT22;69248;42.138;24.742;2023-04-15T05:42:47;12.00;61.80
79760;DHT22;69248;42.138;24.742;2023-04-15T05:45:15;12.00;62.20
79760;DHT22;69248;42.138;24.742;2023-04-15T05:47:42;12.00;62.10
79760;DHT22;69248;42.138;24.742;2023-04-15T05:50:10;12.10;61.50
79760;DHT22;69248;42.138;24.742;2023-04-15T05:52:38;12.10;61.70
79760;DHT22;69248;42.138;24.742;2023-04-15T05:55:06;12.10;61.40
79760;DHT22;69248;42.138;24.742;2023-04-15T05:57:33;12.20;61.40
79760;DHT22;69248;42.138;24.742;2023-04-15T06:00:02;12.20;61.40
79760;DHT22;69248;42.138;24.742;2023-04-15T06:02:30;12.30;61.30
79760;DHT22;69248;42.138;24.742;2023-04-15T06:04:58;12.20;61.60
79760;DHT22;69248;42.138;24.742;2023-04-15T06:07:26;12.30;61.60
79760;DHT22;69248;42.138;24.742;2023-04-15T06:09:53;12.50;61.20
79760;DHT22;69248;42.138;24.742;2023-04-15T06:12:21;12.60;60.70
79760;DHT22;69248;42.138;24.742;2023-04-15T06:14:48;12.70;60.50
79760;DHT22;69248;42.138;24.742;2023-04-15T06:17:16;12.80;60.30
79760;DHT22;69248;42.138;24.742;2023-04-15T06:19:44;12.80;60.10
79760;DHT22;69248;42.138;24.742;2023-04-15T06:22:12;12.80;60.30
79760;DHT22;69248;42.138;24.742;2023-04-15T06:24:39;12.90;60.10
79760;DHT22;69248;42.138;24.742;2023-04-15T06:27:07;13.10;59.70
79760;DHT22;69248;42.138;24.742;2023-04-15T06:29:34;13.40;59.10
79760;DHT22;69248;42.138;24.742;2023-04-15T06:32:02;13.60;58.50
79760;DHT22;69248;42.138;24.742;2023-04-15T06:34:29;13.80;58.30
79760;DHT22;69248;42.138;24.742;2023-04-15T06:36:57;14.00;58.00
79760;DHT22;69248;42.138;24.742;2023-04-15T06:39:24;14.10;57.80
79760;DHT22;69248;42.138;24.742;2023-04-15T06:41:52;14.30;57.60
79760;DHT22;69248;42.138;24.742;2023-04-15T06:44:20;14.50;57.30
79760;DHT22;69248;42.138;24.742;2023-04-15T06:46:47;14.60;57.40
79760;DHT22;69248;42.138;24.742;2023-04-15T06:49:15;14.80;57.30
79760;DHT22;69248;42.138;24.742;2023-04-15T06:51:42;14.90;57.30
79760;DHT22;69248;42.138;24.742;2023-04-15T06:54:10;15.10;57.50
79760;DHT22;69248;42.138;24.742;2023-04-15T06:56:37;15.10;58.10
79760;DHT22;69248;42.138;24.742;2023-04-15T06:59:05;15.10;58.30
79760;DHT22;69248;42.138;24.742;2023-04-15T07:01:33;15.20;58.30
79760;DHT22;69248;42.138;24.742;2023-04-15T07:04:01;15.30;58.20
79760;DHT22;69248;42.138;24.742;2023-04-15T07:06:29;15.40;58.40
79760;DHT22;69248;42.138;24.742;2023-04-15T07:08:57;15.50;58.30
79760;DHT22;69248;42.138;24.742;2023-04-15T07:11:27;15.70;57.90
79760;DHT22;69248;42.138;24.742;2023-04-15T07:13:56;15.80;58.00
79760;DHT22;69248;42.138;24.742;2023-04-15T07:16:23;15.80;57.90
79760;DHT22;69248;42.138;24.742;2023-04-15T07:18:51;15.70;58.50
79760;DHT22;69248;42.138;24.742;2023-04-15T07:21:18;15.80;58.90
79760;DHT22;69248;42.138;24.742;2023-04-15T07:23:46;16.00;58.60
79760;DHT22;69248;42.138;24.742;2023-04-15T07:26:14;16.00;58.50
79760;DHT22;69248;42.138;24.742;2023-04-15T07:28:41;16.10;58.50
79760;DHT22;69248;42.138;24.742;2023-04-15T07:31:09;16.20;58.50
79760;DHT22;69248;42.138;24.742;2023-04-15T07:33:36;16.30;58.30
79760;DHT22;69248;42.138;24.742;2023-04-15T07:36:04;16.40;57.70
79760;DHT22;69248;42.138;24.742;2023-04-15T07:38:31;16.40;57.50
79760;DHT22;69248;42.138;24.742;2023-04-15T07:40:59;16.50;57.80
79760;DHT22;69248;42.138;24.742;2023-04-15T07:43:27;16.60;57.60
79760;DHT22;69248;42.138;24.742;2023-04-15T07:45:54;16.70;57.70
79760;DHT22;69248;42.138;24.742;2023-04-15T07:48:22;16.80;57.30
79760;DHT22;69248;42.138;24.742;2023-04-15T07:50:51;17.00;56.90
79760;DHT22;69248;42.138;24.742;2023-04-15T07:53:18;17.20;56.30
79760;DHT22;69248;42.138;24.742;2023-04-15T07:55:46;17.30;55.90
79760;DHT22;69248;42.138;24.742;2023-04-15T07:58:14;17.40;55.10
79760;DHT22;69248;42.138;24.742;2023-04-15T08:00:41;17.50;54.30
79760;DHT22;69248;42.138;24.742;2023-04-15T08:03:09;17.60;54.00
79760;DHT22;69248;42.138;24.742;2023-04-15T08:05:37;17.70;53.90
79760;DHT22;69248;42.138;24.742;2023-04-15T08:08:05;17.70;53.30
79760;DHT22;69248;42.138;24.742;2023-04-15T08:10:32;17.60;52.40
79760;DHT22;69248;42.138;24.742;2023-04-15T08:13:00;17.70;51.80
79760;DHT22;69248;42.138;24.742;2023-04-15T08:15:28;17.80;51.60
79760;DHT22;69248;42.138;24.742;2023-04-15T08:17:55;17.90;50.90
79760;DHT22;69248;42.138;24.742;2023-04-15T08:20:23;18.00;51.00
79760;DHT22;69248;42.138;24.742;2023-04-15T08:22:50;18.00;50.30
79760;DHT22;69248;42.138;24.742;2023-04-15T08:25:19;18.00;50.50
79760;DHT22;69248;42.138;24.742;2023-04-15T08:27:46;18.00;50.40
79760;DHT22;69248;42.138;24.742;2023-04-15T08:30:14;18.20;49.70
79760;DHT22;69248;42.138;24.742;2023-04-15T08:32:44;18.30;50.60
79760;DHT22;69248;42.138;24.742;2023-04-15T08:35:12;18.50;50.30
79760;DHT22;69248;42.138;24.742;2023-04-15T08:37:40;18.70;49.70
79760;DHT22;69248;42.138;24.742;2023-04-15T08:40:09;18.80;49.30
79760;DHT22;69248;42.138;24.742;2023-04-15T08:42:43;19.00;49.10
79760;DHT22;69248;42.138;24.742;2023-04-15T08:45:11;19.10;48.10
79760;DHT22;69248;42.138;24.742;2023-04-15T08:47:39;19.30;48.00
79760;DHT22;69248;42.138;24.742;2023-04-15T08:50:09;19.60;47.20
79760;DHT22;69248;42.138;24.742;2023-04-15T08:52:37;19.80;46.60
79760;DHT22;69248;42.138;24.742;2023-04-15T08:55:07;20.00;45.60
79760;DHT22;69248;42.138;24.742;2023-04-15T08:57:36;20.20;45.30
79760;DHT22;69248;42.138;24.742;2023-04-15T09:00:06;20.30;44.30
79760;DHT22;69248;42.138;24.742;2023-04-15T09:02:34;20.10;44.00
79760;DHT22;69248;42.138;24.742;2023-04-15T09:05:02;20.10;44.80
79760;DHT22;69248;42.138;24.742;2023-04-15T09:07:33;20.30;44.90
79760;DHT22;69248;42.138;24.742;2023-04-15T09:10:03;20.60;43.80
79760;DHT22;69248;42.138;24.742;2023-04-15T09:12:33;21.00;42.00
79760;DHT22;69248;42.138;24.742;2023-04-15T09:15:00;21.30;39.60
79760;DHT22;69248;42.138;24.742;2023-04-15T09:17:28;21.60;39.20
79760;DHT22;69248;42.138;24.742;2023-04-15T09:20:11;21.50;38.00
79760;DHT22;69248;42.138;24.742;2023-04-15T09:22:40;21.50;38.90
79760;DHT22;69248;42.138;24.742;2023-04-15T09:25:25;21.50;38.10
79760;DHT22;69248;42.138;24.742;2023-04-15T09:27:58;21.60;37.00
79760;DHT22;69248;42.138;24.742;2023-04-15T09:30:27;21.80;37.10
79760;DHT22;69248;42.138;24.742;2023-04-15T09:32:57;22.20;37.60
79760;DHT22;69248;42.138;24.742;2023-04-15T09:35:25;22.50;37.30
79760;DHT22;69248;42.138;24.742;2023-04-15T09:38:04;22.90;36.80
79760;DHT22;69248;42.138;24.742;2023-04-15T09:40:41;23.20;37.90
79760;DHT22;69248;42.138;24.742;2023-04-15T09:43:09;23.70;37.40
79760;DHT22;69248;42.138;24.742;2023-04-15T09:45:46;23.90;35.90
79760;DHT22;69248;42.138;24.742;2023-04-15T09:48:17;24.00;35.20
79760;DHT22;69248;42.138;24.742;2023-04-15T09:50:49;24.20;35.30
79760;DHT22;69248;42.138;24.742;2023-04-15T09:53:21;24.30;34.40
79760;DHT22;69248;42.138;24.742;2023-04-15T09:55:57;24.40;34.10
79760;DHT22;69248;42.138;24.742;2023-04-15T09:58:27;24.50;33.80
79760;DHT22;69248;42.138;24.742;2023-04-15T10:00:56;24.70;33.70
79760;DHT22;69248;42.138;24.742;2023-04-15T10:03:26;24.60;33.00
79760;DHT22;69248;42.138;24.742;2023-04-15T10:05:55;24.50;33.30
79760;DHT22;69248;42.138;24.742;2023-04-15T10:08:26;24.60;33.50
79760;DHT22;69248;42.138;24.742;2023-04-15T10:10:53;24.80;32.60
79760;DHT22;69248;42.138;24.742;2023-04-15T10:13:23;24.90;32.30
79760;DHT22;69248;42.138;24.742;2023-04-15T10:16:05;25.00;30.90
79760;DHT22;69248;42.138;24.742;2023-04-15T10:18:39;25.10;29.40
79760;DHT22;69248;42.138;24.742;2023-04-15T10:21:08;25.10;27.80
79760;DHT22;69248;42.138;24.742;2023-04-15T10:23:35;25.20;27.30
79760;DHT22;69248;42.138;24.742;2023-04-15T10:26:04;25.10;27.20
79760;DHT22;69248;42.138;24.742;2023-04-15T10:28:33;25.30;28.00
79760;DHT22;69248;42.138;24.742;2023-04-15T10:31:01;25.30;27.60
79760;DHT22;69248;42.138;24.742;2023-04-15T10:33:29;25.50;27.80
79760;DHT22;69248;42.138;24.742;2023-04-15T10:35:57;25.60;27.70
79760;DHT22;69248;42.138;24.742;2023-04-15T10:38:42;25.50;28.90
79760;DHT22;69248;42.138;24.742;2023-04-15T10:41:18;25.50;29.00
79760;DHT22;69248;42.138;24.742;2023-04-15T10:43:51;25.60;28.50
79760;DHT22;69248;42.138;24.742;2023-04-15T10:46:21;25.70;28.50
79760;DHT22;69248;42.138;24.742;2023-04-15T10:48:51;25.90;28.50
79760;DHT22;69248;42.138;24.742;2023-04-15T10:51:30;25.80;28.90
79760;DHT22;69248;42.138;24.742;2023-04-15T10:53:59;25.70;29.60
79760;DHT22;69248;42.138;24.742;2023-04-15T10:56:29;25.50;29.50
79760;DHT22;69248;42.138;24.742;2023-04-15T10:59:00;25.70;30.30
79760;DHT22;69248;42.138;24.742;2023-04-15T11:01:49;25.90;30.80
79760;DHT22;69248;42.138;24.742;2023-04-15T11:07:06;25.60;30.90
79760;DHT22;69248;42.138;24.742;2023-04-15T11:09:34;25.50;31.00
79760;DHT22;69248;42.138;24.742;2023-04-15T11:12:05;25.40;30.80
79760;DHT22;69248;42.138;24.742;2023-04-15T11:14:39;25.50;31.70
79760;DHT22;69248;42.138;24.742;2023-04-15T11:17:08;25.30;31.80
79760;DHT22;69248;42.138;24.742;2023-04-15T11:19:37;25.50;31.70
79760;DHT22;69248;42.138;24.742;2023-04-15T11:22:09;25.50;30.60
79760;DHT22;69248;42.138;24.742;2023-04-15T11:24:48;25.60;30.50
79760;DHT22;69248;42.138;24.742;2023-04-15T11:27:23;25.80;30.00
79760;DHT22;69248;42.138;24.742;2023-04-15T11:29:50;26.00;29.90
79760;DHT22;69248;42.138;24.742;2023-04-15T11:32:18;26.20;29.90
79760;DHT22;69248;42.138;24.742;2023-04-15T11:34:47;26.40;30.00
79760;DHT22;69248;42.138;24.742;2023-04-15T11:37:15;26.40;29.80
79760;DHT22;69248;42.138;24.742;2023-04-15T11:39:43;26.30;29.90
79760;DHT22;69248;42.138;24.742;2023-04-15T11:42:16;26.40;29.80
79760;DHT22;69248;42.138;24.742;2023-04-15T11:44:44;26.50;29.60
79760;DHT22;69248;42.138;24.742;2023-04-15T11:47:24;26.70;29.20
79760;DHT22;69248;42.138;24.742;2023-04-15T11:49:51;26.90;29.30
79760;DHT22;69248;42.138;24.742;2023-04-15T11:52:19;27.40;28.90
79760;DHT22;69248;42.138;24.742;2023-04-15T11:54:46;28.00;28.50
79760;DHT22;69248;42.138;24.742;2023-04-15T11:57:14;28.70;28.00
79760;DHT22;69248;42.138;24.742;2023-04-15T11:59:42;29.30;26.90
79760;DHT22;69248;42.138;24.742;2023-04-15T12:02:13;30.00;26.60
79760;DHT22;69248;42.138;24.742;2023-04-15T12:04:40;30.90;25.40
79760;DHT22;69248;42.138;24.742;2023-04-15T12:07:08;31.40;25.10
79760;DHT22;69248;42.138;24.742;2023-04-15T12:09:39;32.50;23.40
79760;DHT22;69248;42.138;24.742;2023-04-15T12:12:06;33.60;22.10
79760;DHT22;69248;42.138;24.742;2023-04-15T12:14:34;34.50;21.30
79760;DHT22;69248;42.138;24.742;2023-04-15T12:17:04;34.90;20.80
79760;DHT22;69248;42.138;24.742;2023-04-15T12:19:38;35.10;20.20
79760;DHT22;69248;42.138;24.742;2023-04-15T12:22:11;35.70;20.00
79760;DHT22;69248;42.138;24.742;2023-04-15T12:24:40;36.60;19.40
79760;DHT22;69248;42.138;24.742;2023-04-15T12:27:11;37.30;18.50
79760;DHT22;69248;42.138;24.742;2023-04-15T12:29:40;37.00;18.50
79760;DHT22;69248;42.138;24.742;2023-04-15T12:32:13;37.40;18.90
79760;DHT22;69248;42.138;24.742;2023-04-15T12:34:48;38.30;18.70
79760;DHT22;69248;42.138;24.742;2023-04-15T12:37:13;39.20;17.80
79760;DHT22;69248;42.138;24.742;2023-04-15T12:39:43;39.80;17.30
79760;DHT22;69248;42.138;24.742;2023-04-15T12:42:11;39.30;17.10
79760;DHT22;69248;42.138;24.742;2023-04-15T12:44:39;38.50;17.80
79760;DHT22;69248;42.138;24.742;2023-04-15T12:47:07;37.80;18.40
79760;DHT22;69248;42.138;24.742;2023-04-15T12:49:35;37.00;19.00
79760;DHT22;69248;42.138;24.742;2023-04-15T12:52:03;35.90;19.90
79760;DHT22;69248;42.138;24.742;2023-04-15T12:54:31;34.80;20.90
79760;DHT22;69248;42.138;24.742;2023-04-15T12:56:59;34.00;21.90
79760;DHT22;69248;42.138;24.742;2023-04-15T12:59:28;33.40;22.30
79760;DHT22;69248;42.138;24.742;2023-04-15T13:01:56;32.90;23.00
79760;DHT22;69248;42.138;24.742;2023-04-15T13:04:25;32.30;23.60
79760;DHT22;69248;42.138;24.742;2023-04-15T13:06:54;31.60;24.40
79760;DHT22;69248;42.138;24.742;2023-04-15T13:09:22;30.90;25.20
79760;DHT22;69248;42.138;24.742;2023-04-15T13:11:49;30.30;26.00
79760;DHT22;69248;42.138;24.742;2023-04-15T13:14:18;29.70;27.00
79760;DHT22;69248;42.138;24.742;2023-04-15T13:16:45;29.00;27.90
79760;DHT22;69248;42.138;24.742;2023-04-15T13:19:13;28.50;28.70
79760;DHT22;69248;42.138;24.742;2023-04-15T13:21:41;28.10;29.10
79760;DHT22;69248;42.138;24.742;2023-04-15T13:24:08;28.00;29.40
79760;DHT22;69248;42.138;24.742;2023-04-15T13:26:36;27.90;29.60
79760;DHT22;69248;42.138;24.742;2023-04-15T13:29:03;27.80;29.80
79760;DHT22;69248;42.138;24.742;2023-04-15T13:31:31;27.80;30.20
79760;DHT22;69248;42.138;24.742;2023-04-15T13:33:58;27.60;30.30
79760;DHT22;69248;42.138;24.742;2023-04-15T13:36:26;27.60;30.50
79760;DHT22;69248;42.138;24.742;2023-04-15T13:38:53;27.70;30.60
79760;DHT22;69248;42.138;24.742;2023-04-15T13:41:22;29.30;28.90
79760;DHT22;69248;42.138;24.742;2023-04-15T13:43:49;32.40;25.40
79760;DHT22;69248;42.138;24.742;2023-04-15T13:46:17;35.80;22.40
79760;DHT22;69248;42.138;24.742;2023-04-15T13:48:44;38.10;19.70
79760;DHT22;69248;42.138;24.742;2023-04-15T13:51:12;40.20;18.30
79760;DHT22;69248;42.138;24.742;2023-04-15T13:53:39;41.60;16.90
79760;DHT22;69248;42.138;24.742;2023-04-15T13:56:07;40.80;17.20
79760;DHT22;69248;42.138;24.742;2023-04-15T13:58:35;39.40;18.20
79760;DHT22;69248;42.138;24.742;2023-04-15T14:01:04;37.50;19.60
79760;DHT22;69248;42.138;24.742;2023-04-15T14:03:38;36.00;20.80
79760;DHT22;69248;42.138;24.742;2023-04-15T14:06:01;34.90;22.20
79760;DHT22;69248;42.138;24.742;2023-04-15T14:08:29;33.80;23.20
79760;DHT22;69248;42.138;24.742;2023-04-15T14:10:57;32.90;24.30
79760;DHT22;69248;42.138;24.742;2023-04-15T14:13:24;32.40;24.70
79760;DHT22;69248;42.138;24.742;2023-04-15T14:15:54;32.30;25.00
79760;DHT22;69248;42.138;24.742;2023-04-15T14:18:21;32.00;25.10
79760;DHT22;69248;42.138;24.742;2023-04-15T14:20:48;31.70;25.50
79760;DHT22;69248;42.138;24.742;2023-04-15T14:23:16;31.40;25.70
79760;DHT22;69248;42.138;24.742;2023-04-15T14:25:44;31.10;26.40
79760;DHT22;69248;42.138;24.742;2023-04-15T14:28:11;30.70;27.10
79760;DHT22;69248;42.138;24.742;2023-04-15T14:30:39;30.10;27.50
79760;DHT22;69248;42.138;24.742;2023-04-15T14:33:06;29.60;28.20
79760;DHT22;69248;42.138;24.742;2023-04-15T14:35:34;29.30;28.50
79760;DHT22;69248;42.138;24.742;2023-04-15T14:38:01;29.10;28.50
79760;DHT22;69248;42.138;24.742;2023-04-15T14:40:29;29.00;28.90
79760;DHT22;69248;42.138;24.742;2023-04-15T14:42:57;28.80;29.40
79760;DHT22;69248;42.138;24.742;2023-04-15T14:45:24;29.50;29.10
79760;DHT22;69248;42.138;24.742;2023-04-15T14:47:52;29.80;28.40
79760;DHT22;69248;42.138;24.742;2023-04-15T14:50:20;30.20;28.30
79760;DHT22;69248;42.138;24.742;2023-04-15T14:52:47;30.60;27.60
79760;DHT22;69248;42.138;24.742;2023-04-15T14:55:15;30.60;27.60
79760;DHT22;69248;42.138;24.742;2023-04-15T14:57:43;30.90;27.50
79760;DHT22;69248;42.138;24.742;2023-04-15T15:00:11;31.90;26.30
79760;DHT22;69248;42.138;24.742;2023-04-15T15:02:38;33.30;24.90
79760;DHT22;69248;42.138;24.742;2023-04-15T15:05:08;35.40;22.80
79760;DHT22;69248;42.138;24.742;2023-04-15T15:07:37;36.90;21.50
79760;DHT22;69248;42.138;24.742;2023-04-15T15:10:07;37.50;20.60
79760;DHT22;69248;42.138;24.742;2023-04-15T15:12:35;37.50;20.60
79760;DHT22;69248;42.138;24.742;2023-04-15T15:15:04;37.50;20.90
79760;DHT22;69248;42.138;24.742;2023-04-15T15:17:32;37.70;20.80
79760;DHT22;69248;42.138;24.742;2023-04-15T15:20:01;38.10;20.20
79760;DHT22;69248;42.138;24.742;2023-04-15T15:22:29;38.70;20.20
79760;DHT22;69248;42.138;24.742;2023-04-15T15:24:56;39.50;19.30